Pagrindinis puslapis
METAR-TAF:

METAR-TAF

Oro uostai :

Šiaulių oro uostas

Šiauliai, Lietuva

platuma: 55-53-38N, ilguma: 023-23-42E, Aukštis: 135 m

Dabartinis oras

Ataskaita buvo paskelbta 1 valandą ir 2 minutes, ne 23:20 UTC
Vėjas 8 kt iš Vakarų
Temperatūra 16°C
Drėgmė 94%
Slėgis 1023 hPa
Matomumas 10 km arba daugiau
Su prošvaistėmis ne aukštis 4500 ft

METAR: EYSA 022320Z AUTO 27008KT 9999NDV BKN045 16/15 Q1023

Laikas: 03:22 (00:22 UTC)

Prognozė

Ataskaita buvo paskelbta 1 valandą ir 22 minutes, ne 23:00 UTC
Prognozė galioja nuo 03 metu 00 UTC su 03 metu 09 UTC
Vėjas 6 kt iš Vakarų
Matomumas: 9000 m
Tapsmas
nuo 03 metu 03 UTC su 03 metu 04 UTC
Vėjas 10 kt iš Šiaurės/Šiaurės Vakarų
Laikinai
nuo 03 metu 06 UTC su 03 metu 09 UTC
Su prošvaistėmis ne aukštis 2500 ft

TAF: EYSA 022300Z 0300/0309 28006KT 9000 NSC BECMG 0303/0304 34010KT TEMPO 0306/0309 BKN025

Orai ataskaitas ir orų prognozės (METAR, TAF).

turimą stotys yra geltonos ir raudonos taškus žemėlapyje.

Perkelti pele per norėdami pamatyti stoties vardą.

Tada spustelėkite, norėdami matyti oro stebėjimo ir prognozės.

Norėdami pakeisti žemėlapį: spustelėkite ant žalios mygtukų su juodo kryžiaus žemyn,; žalią mygtuką su brūkšneliu, jei norite nutolinti; arba žalių rodyklių gretimoms žemėlapius.


METAR-TAF: